Time;durP1;ratioP1;P1;durP2;ratioP2;P2;SDS_P1;SDS_P2;PMS_P1;PMS_P2;Temp;Humidity;BMP_temperature;BMP_pressure;BME280_temperature;BME280_humidity;BME280_pressure;Samples;Min_cycle;Max_cycle;Signal;HPM_P1;HPM_P2
2019/05/25 00:01:34;;;;;;;9.9;7.6;;;;;;;14.97;65.7373;959.8716;;;;
2019/05/25 00:04:16;;;;;;;10.5;8;;;;;;;14.95;66.0625;959.8931;;;;
2019/05/25 00:06:42;;;;;;;9.3;7.7;;;;;;;14.86;66.06152;959.8528;;;;
2019/05/25 00:09:08;;;;;;;11.2;9.1;;;;;;;14.86;66.21484;959.905;;;;
2019/05/25 00:11:34;;;;;;;9.8;8.4;;;;;;;14.76;67.2002;959.8502;;;;
2019/05/25 00:14:00;;;;;;;10.3;9.1;;;;;;;14.71;66.35645;959.7964;;;;
2019/05/25 00:16:25;;;;;;;11.9;8.8;;;;;;;14.66;67.43262;959.8681;;;;
2019/05/25 00:18:50;;;;;;;10.4;9.1;;;;;;;14.7;67.01465;959.8106;;;;
2019/05/25 00:21:15;;;;;;;10.7;8.5;;;;;;;14.65;66.98438;959.8133;;;;
2019/05/25 00:23:44;;;;;;;11.2;8.6;;;;;;;14.7;66.73145;959.8326;;;;
2019/05/25 00:26:09;;;;;;;10.7;8.4;;;;;;;14.61;67.86133;959.7927;;;;
2019/05/25 00:28:35;;;;;;;9.8;8.6;;;;;;;14.62;66.68457;959.8136;;;;
2019/05/25 00:31:00;;;;;;;9;8.1;;;;;;;14.61;67.04785;959.7847;;;;
2019/05/25 00:33:25;;;;;;;9;7.8;;;;;;;14.65;66.43066;959.7833;;;;
2019/05/25 00:35:51;;;;;;;9.5;8.6;;;;;;;14.52;67.28223;959.8264;;;;
2019/05/25 00:38:21;;;;;;;10.1;9.1;;;;;;;14.45;67.6582;959.8669;;;;
2019/05/25 00:40:49;;;;;;;10.8;8.3;;;;;;;14.39;67.62598;959.8457;;;;
2019/05/25 00:43:15;;;;;;;10.3;8.1;;;;;;;14.44;68.29297;959.8731;;;;
2019/05/25 00:45:40;;;;;;;9.3;8.4;;;;;;;14.44;67.75098;959.8771;;;;
2019/05/25 00:48:05;;;;;;;10;9;;;;;;;14.38;68.35352;959.8298;;;;
2019/05/25 00:50:30;;;;;;;12.1;9.8;;;;;;;14.34;68.19531;959.8262;;;;
2019/05/25 00:52:58;;;;;;;18.4;13.3;;;;;;;14.31;69.42578;959.8174;;;;
2019/05/25 00:55:23;;;;;;;16.4;13.5;;;;;;;14.37;69.10449;959.8086;;;;
2019/05/25 00:57:49;;;;;;;13.9;12.5;;;;;;;14.27;69.03027;959.7707;;;;
2019/05/25 01:00:19;;;;;;;14;11.8;;;;;;;14.32;68.84961;959.7942;;;;
2019/05/25 01:02:44;;;;;;;13.7;9.8;;;;;;;14.2;69.3623;959.8024;;;;
2019/05/25 01:05:09;;;;;;;10.7;9.6;;;;;;;14.27;69.06445;959.8409;;;;
2019/05/25 01:07:56;;;;;;;9.6;8.6;;;;;;;14.23;69.27051;959.829;;;;
2019/05/25 01:10:21;;;;;;;11.9;9.7;;;;;;;14.19;69.22949;959.7735;;;;
2019/05/25 01:12:50;;;;;;;11.1;9.5;;;;;;;14.18;69.59277;959.7834;;;;
2019/05/25 01:15:22;;;;;;;12.8;10.2;;;;;;;14.18;69.29883;959.8094;;;;
2019/05/25 01:17:48;;;;;;;13.2;10.8;;;;;;;14.15;69.17676;959.874;;;;
2019/05/25 01:20:13;;;;;;;15.6;10.6;;;;;;;14.14;69.44629;959.8278;;;;
2019/05/25 01:22:38;;;;;;;11.3;8.4;;;;;;;14.08;68.81348;959.7975;;;;
2019/05/25 01:25:03;;;;;;;9.1;8.2;;;;;;;13.99;69.87891;959.8311;;;;
2019/05/25 01:27:54;;;;;;;11;8.1;;;;;;;13.93;69.88281;959.8748;;;;
2019/05/25 01:30:19;;;;;;;10.3;8.3;;;;;;;14;69.95215;959.7952;;;;
2019/05/25 01:32:52;;;;;;;13.8;9;;;;;;;13.87;70.68359;959.8351;;;;
2019/05/25 01:35:17;;;;;;;11.1;8.8;;;;;;;13.82;70.55859;959.7855;;;;
2019/05/25 01:37:51;;;;;;;11.5;7.9;;;;;;;13.81;70.37891;959.8525;;;;
2019/05/25 01:40:17;;;;;;;9.5;8.5;;;;;;;13.76;70.68945;959.7939;;;;
2019/05/25 01:42:44;;;;;;;9.2;8;;;;;;;13.7;71.12598;959.7975;;;;
